Time;durP1;ratioP1;P1;durP2;ratioP2;P2;SDS_P1;SDS_P2;PMS_P1;PMS_P2;Temp;Humidity;BMP_temperature;BMP_pressure;BME280_temperature;BME280_humidity;BME280_pressure;Samples;Min_cycle;Max_cycle;Signal;HPM_P1;HPM_P2
2023/05/08 00:00:25;;;;;;;17.08;14.45;;;13.10;99.90;;;;;;4960549;28;20266;-80
2023/05/08 00:02:50;;;;;;;18.88;14.57;;;13.10;99.90;;;;;;4977224;28;20251;-79
2023/05/08 00:05:16;;;;;;;17.52;14.48;;;13.10;99.90;;;;;;4976661;28;20217;-79
2023/05/08 00:07:42;;;;;;;17.70;14.75;;;13.10;99.90;;;;;;4994322;28;20184;-79
2023/05/08 00:10:09;;;;;;;18.98;15.27;;;13.10;99.90;;;;;;4960261;28;20754;-79
2023/05/08 00:12:35;;;;;;;20.88;15.52;;;13.10;99.90;;;;;;4975938;28;20200;-79
2023/05/08 00:15:02;;;;;;;20.58;15.80;;;13.10;99.90;;;;;;4994385;28;20276;-79
2023/05/08 00:17:28;;;;;;;20.27;15.52;;;13.00;99.90;;;;;;4977119;28;20268;-78
2023/05/08 00:19:54;;;;;;;19.25;15.32;;;13.00;99.90;;;;;;4958927;28;20293;-79
2023/05/08 00:22:19;;;;;;;23.33;15.80;;;13.00;99.90;;;;;;4988879;28;20601;-78
2023/05/08 00:24:45;;;;;;;20.08;15.35;;;12.90;99.90;;;;;;4993488;28;20173;-79
2023/05/08 00:27:11;;;;;;;19.00;15.02;;;12.90;99.90;;;;;;4960078;28;20189;-80
2023/05/08 00:29:39;;;;;;;20.58;15.82;;;12.80;99.90;;;;;;4944317;28;20681;-79
2023/05/08 00:32:08;;;;;;;21.98;16.58;;;12.90;99.90;;;;;;4975667;28;20219;-79
2023/05/08 00:34:35;;;;;;;23.38;16.33;;;12.90;99.90;;;;;;4976658;28;20365;-79
2023/05/08 00:37:02;;;;;;;20.88;15.93;;;12.80;99.90;;;;;;4976519;28;20185;-81
2023/05/08 00:39:28;;;;;;;19.65;15.38;;;12.80;99.90;;;;;;4976942;28;20200;-79
2023/05/08 00:41:54;;;;;;;22.20;16.27;;;12.80;99.90;;;;;;4975094;28;20243;-79
2023/05/08 00:44:20;;;;;;;21.52;16.05;;;12.80;99.90;;;;;;4942962;28;20185;-79
2023/05/08 00:46:47;;;;;;;22.27;16.17;;;12.80;99.90;;;;;;4985858;28;20644;-79
2023/05/08 00:49:14;;;;;;;19.92;16.25;;;12.80;99.90;;;;;;4974495;28;20182;-80
2023/05/08 00:51:42;;;;;;;19.83;16.08;;;12.70;99.90;;;;;;4956953;28;20684;-80
2023/05/08 00:54:08;;;;;;;24.20;16.63;;;12.70;99.90;;;;;;4974052;28;20174;-79
2023/05/08 00:56:36;;;;;;;28.42;16.20;;;12.70;99.90;;;;;;4986694;28;20223;-80
2023/05/08 00:59:11;;;;;;;22.48;16.00;;;12.60;99.90;;;;;;4976680;28;20174;-78
2023/05/08 01:01:38;;;;;;;20.85;16.15;;;12.60;99.90;;;;;;4976229;28;20208;-79
2023/05/08 01:04:04;;;;;;;26.23;16.80;;;12.60;99.90;;;;;;4976323;28;20185;-80
2023/05/08 01:06:30;;;;;;;22.40;16.67;;;12.50;99.90;;;;;;4992173;28;20227;-80
2023/05/08 01:08:56;;;;;;;22.48;17.27;;;12.60;99.90;;;;;;4974908;28;20264;-78
2023/05/08 01:12:06;;;;;;;22.73;16.33;;;12.50;99.90;;;;;;4960058;28;20213;-80
2023/05/08 01:14:34;;;;;;;20.55;16.42;;;12.50;99.90;;;;;;4969426;28;20177;-79
2023/05/08 01:17:19;;;;;;;22.02;17.00;;;12.50;99.90;;;;;;4975609;28;20329;-80
2023/05/08 01:19:57;;;;;;;20.80;16.25;;;12.50;99.90;;;;;;4972831;28;20181;-79
2023/05/08 01:22:37;;;;;;;22.98;17.42;;;12.40;99.90;;;;;;4990731;28;20185;-79
2023/05/08 01:25:09;;;;;;;22.88;17.38;;;12.40;99.90;;;;;;4974433;28;20191;-80
2023/05/08 01:27:56;;;;;;;22.25;17.15;;;12.40;99.90;;;;;;4959525;28;20243;-79
2023/05/08 01:30:55;;;;;;;22.95;17.67;;;12.40;99.90;;;;;;4959229;28;20192;-79
2023/05/08 01:33:52;;;;;;;22.50;16.70;;;12.30;99.90;;;;;;4992909;28;20192;-80
2023/05/08 01:36:27;;;;;;;23.00;17.83;;;12.30;99.90;;;;;;4992103;28;20189;-79
2023/05/08 01:39:08;;;;;;;26.40;18.02;;;12.20;99.90;;;;;;4977685;28;20195;-79
2023/05/08 01:41:36;;;;;;;23.58;18.00;;;12.20;99.90;;;;;;4975888;28;20309;-79
2023/05/08 01:44:07;;;;;;;21.85;17.67;;;12.20;99.90;;;;;;4975466;28;20217;-80
2023/05/08 01:46:33;;;;;;;21.15;16.85;;;12.20;99.90;;;;;;4974012;28;20199;-79
2023/05/08 01:49:05;;;;;;;21.65;17.02;;;12.20;99.90;;;;;;4992898;28;20194;-78
2023/05/08 01:51:45;;;;;;;21.92;16.92;;;12.10;99.90;;;;;;4992026;28;20296;-78
2023/05/08 01:54:18;;;;;;;21.55;17.67;;;12.10;99.90;;;;;;4974949;28;20193;-78
2023/05/08 01:56:46;;;;;;;24.05;17.45;;;12.10;99.90;;;;;;4988037;28;20204;-80
2023/05/08 01:59:17;;;;;;;26.92;17.17;;;12.10;99.90;;;;;;4979610;28;20228;-78
2023/05/08 02:01:45;;;;;;;25.02;17.27;;;12.10;99.90;;;;;;4974753;28;20201;-78
2023/05/08 02:04:13;;;;;;;23.83;16.83;;;12.10;99.90;;;;;;4971134;28;20185;-80
2023/05/08 02:06:39;;;;;;;22.75;17.45;;;12.10;99.90;;;;;;4994671;28;20197;-79
2023/05/08 02:09:08;;;;;;;23.40;17.33;;;12.10;99.90;;;;;;4963089;28;20255;-79
2023/05/08 02:11:36;;;;;;;24.85;17.35;;;12.10;99.90;;;;;;4996321;28;20223;-79
2023/05/08 02:14:03;;;;;;;25.13;17.55;;;12.00;99.90;;;;;;4979340;28;20655;-79
2023/05/08 02:16:30;;;;;;;22.55;17.83;;;12.00;99.90;;;;;;4978985;28;20280;-80
2023/05/08 02:18:59;;;;;;;26.23;18.48;;;12.00;99.90;;;;;;4975936;28;20186;-79
2023/05/08 02:21:26;;;;;;;21.45;17.92;;;11.90;99.90;;;;;;4990279;28;20620;-79
2023/05/08 02:23:55;;;;;;;23.80;17.70;;;11.90;99.90;;;;;;4996027;28;20197;-79
2023/05/08 02:26:22;;;;;;;22.60;17.75;;;11.90;99.90;;;;;;4972385;28;20188;-79
2023/05/08 02:28:51;;;;;;;22.95;17.20;;;11.90;99.90;;;;;;4983791;28;20243;-79
2023/05/08 02:31:18;;;;;;;22.40;17.38;;;11.90;99.90;;;;;;4981978;28;20205;-80
2023/05/08 02:33:44;;;;;;;23.10;18.05;;;11.90;99.90;;;;;;4979212;28;20284;-79
2023/05/08 02:36:14;;;;;;;25.20;18.00;;;11.90;99.90;;;;;;4951143;28;20190;-80
2023/05/08 02:38:43;;;;;;;23.52;17.85;;;11.90;99.90;;;;;;4975732;28;20186;-79
2023/05/08 02:41:11;;;;;;;23.40;17.92;;;11.80;99.90;;;;;;4976816;28;20644;-81
2023/05/08 02:43:37;;;;;;;25.90;17.75;;;11.80;99.90;;;;;;4975475;28;20181;-80
2023/05/08 02:46:05;;;;;;;23.05;17.67;;;11.80;99.90;;;;;;4974216;28;20201;-80
2023/05/08 02:48:53;;;;;;;23.33;17.95;;;11.80;99.90;;;;;;4974352;28;20258;-80
2023/05/08 02:51:49;;;;;;;23.13;17.25;;;11.80;99.90;;;;;;4974972;28;20255;-80
2023/05/08 02:54:43;;;;;;;22.25;17.60;;;11.70;99.90;;;;;;4958526;28;20216;-80
2023/05/08 02:57:25;;;;;;;24.88;17.63;;;11.70;99.90;;;;;;4974283;28;20646;-79
2023/05/08 02:59:59;;;;;;;25.02;18.73;;;11.70;99.90;;;;;;4975859;28;20935;-80
2023/05/08 03:02:51;;;;;;;25.58;18.38;;;11.70;99.90;;;;;;4975134;28;20192;-80
2023/05/08 03:05:32;;;;;;;23.98;18.33;;;11.60;99.90;;;;;;4974449;28;20188;-79
2023/05/08 03:08:04;;;;;;;25.05;18.27;;;11.60;99.90;;;;;;4958409;28;20643;-79
2023/05/08 03:10:33;;;;;;;23.77;17.70;;;11.60;99.90;;;;;;4974254;28;20181;-80
2023/05/08 03:13:03;;;;;;;25.25;18.42;;;11.60;99.90;;;;;;4974610;28;20197;-79
2023/05/08 03:15:47;;;;;;;22.52;17.98;;;11.50;99.90;;;;;;4958181;28;20189;-79
2023/05/08 03:18:18;;;;;;;23.40;18.20;;;11.50;99.90;;;;;;4974329;28;20604;-79
2023/05/08 03:20:47;;;;;;;26.27;18.40;;;11.50;99.90;;;;;;4958953;28;20186;-80
2023/05/08 03:23:15;;;;;;;22.20;18.73;;;11.50;99.90;;;;;;4973700;28;20560;-78
2023/05/08 03:25:42;;;;;;;27.55;17.95;;;11.50;99.90;;;;;;4974056;28;20189;-78
2023/05/08 03:28:10;;;;;;;24.65;18.70;;;11.40;99.90;;;;;;4975748;28;20261;-79
2023/05/08 03:30:39;;;;;;;25.15;19.27;;;11.40;99.90;;;;;;4975788;28;20224;-79
2023/05/08 03:33:10;;;;;;;25.10;19.38;;;11.40;99.90;;;;;;4977715;28;20185;-80
2023/05/08 03:35:37;;;;;;;25.20;19.05;;;11.40;99.90;;;;;;4977602;28;20177;-80
2023/05/08 03:38:05;;;;;;;24.20;19.30;;;11.30;99.90;;;;;;4974331;28;20181;-78
2023/05/08 03:40:37;;;;;;;26.40;20.00;;;11.30;99.90;;;;;;4974462;28;20197;-79
2023/05/08 03:43:07;;;;;;;22.95;18.25;;;11.30;99.90;;;;;;4958050;28;20589;-81
2023/05/08 03:45:40;;;;;;;25.70;18.95;;;11.20;99.90;;;;;;4982014;28;20327;-79
2023/05/08 03:48:07;;;;;;;24.63;18.90;;;11.20;99.90;;;;;;4976828;28;20173;-79
2023/05/08 03:50:36;;;;;;;26.20;19.30;;;11.20;99.90;;;;;;4977778;28;20224;-78
2023/05/08 03:53:02;;;;;;;22.95;18.90;;;11.20;99.90;;;;;;4957121;28;20695;-80
2023/05/08 03:55:29;;;;;;;26.65;19.42;;;11.20;99.90;;;;;;4974154;28;20640;-79
2023/05/08 03:57:56;;;;;;;23.73;19.17;;;11.20;99.90;;;;;;4993049;28;20237;-78
2023/05/08 04:00:55;;;;;;;28.20;19.30;;;11.20;99.90;;;;;;4961031;28;20192;-79
2023/05/08 04:03:39;;;;;;;26.10;18.50;;;11.10;99.90;;;;;;4993729;28;20185;-81
2023/05/08 04:06:14;;;;;;;23.60;17.95;;;11.20;99.90;;;;;;4960492;28;20185;-78
2023/05/08 04:08:48;;;;;;;25.52;18.60;;;11.10;99.90;;;;;;4963766;28;20635;-81
2023/05/08 04:11:29;;;;;;;24.20;17.83;;;11.10;99.90;;;;;;4958037;28;20206;-78
2023/05/08 04:14:02;;;;;;;26.27;19.42;;;11.10;99.90;;;;;;4959949;28;20192;-79
2023/05/08 04:16:33;;;;;;;22.98;17.88;;;11.10;99.90;;;;;;4961212;28;20209;-79
2023/05/08 04:19:02;;;;;;;24.17;18.15;;;11.10;99.90;;;;;;4976400;28;20199;-78
2023/05/08 04:21:32;;;;;;;24.15;17.90;;;11.00;99.90;;;;;;4977134;28;20184;-77
2023/05/08 04:23:59;;;;;;;24.05;18.40;;;11.00;99.90;;;;;;4976139;28;20228;-80
2023/05/08 04:26:28;;;;;;;23.75;18.23;;;11.00;99.90;;;;;;4962456;28;20183;-91
2023/05/08 04:28:56;;;;;;;26.85;19.23;;;11.00;99.90;;;;;;4960800;28;20619;-78
2023/05/08 04:31:23;;;;;;;27.35;18.73;;;11.00;99.90;;;;;;4976681;28;20212;-78
2023/05/08 04:33:49;;;;;;;22.08;17.83;;;11.00;99.90;;;;;;4989306;28;20186;-77
2023/05/08 04:36:15;;;;;;;22.80;17.08;;;11.00;99.90;;;;;;4975252;28;20196;-78
2023/05/08 04:38:43;;;;;;;23.85;17.63;;;11.00;99.90;;;;;;4991953;28;20177;-78
2023/05/08 04:41:10;;;;;;;22.48;17.35;;;11.00;99.90;;;;;;4960559;28;20196;-78
2023/05/08 04:43:36;;;;;;;23.58;17.75;;;11.00;99.90;;;;;;4959114;28;20272;-79
2023/05/08 04:46:05;;;;;;;19.83;16.60;;;11.00;99.90;;;;;;4960408;28;20193;-79
2023/05/08 04:48:32;;;;;;;21.58;17.20;;;11.00;99.90;;;;;;4976330;28;20185;-78
2023/05/08 04:50:59;;;;;;;26.95;16.90;;;11.00;99.90;;;;;;4965751;28;20639;-77
2023/05/08 04:53:25;;;;;;;25.23;16.40;;;11.00;99.90;;;;;;4961810;28;20280;-79
2023/05/08 04:55:52;;;;;;;20.92;17.15;;;11.00;99.90;;;;;;4992303;28;20235;-76
2023/05/08 04:58:18;;;;;;;20.67;16.88;;;11.00;99.90;;;;;;4976122;28;20596;-76
2023/05/08 05:00:44;;;;;;;21.90;16.58;;;11.00;99.90;;;;;;4972621;28;20186;-77
2023/05/08 05:03:10;;;;;;;21.52;16.08;;;11.00;99.90;;;;;;4971460;28;20722;-80
2023/05/08 05:05:36;;;;;;;21.30;16.17;;;11.00;99.90;;;;;;4960552;28;20190;-78
2023/05/08 05:08:03;;;;;;;21.65;15.68;;;11.00;99.90;;;;;;4973024;28;20197;-79
2023/05/08 05:10:29;;;;;;;22.70;15.68;;;11.10;99.90;;;;;;4977119;28;20221;-79
2023/05/08 05:12:55;;;;;;;23.63;16.77;;;11.10;99.90;;;;;;4971903;28;20193;-77
2023/05/08 05:15:21;;;;;;;21.05;15.75;;;11.10;99.90;;;;;;4959846;28;20182;-77
2023/05/08 05:17:47;;;;;;;20.23;15.90;;;11.10;99.90;;;;;;4975924;28;20264;-77
2023/05/08 05:20:13;;;;;;;21.23;15.27;;;11.10;99.90;;;;;;4959153;28;20600;-77
2023/05/08 05:22:39;;;;;;;19.73;16.33;;;11.10;99.90;;;;;;4994068;28;20243;-79
2023/05/08 05:25:07;;;;;;;21.33;16.20;;;11.10;99.90;;;;;;4975280;28;20188;-76
2023/05/08 05:27:36;;;;;;;19.20;16.02;;;11.20;99.90;;;;;;4976582;28;20193;-76
2023/05/08 05:30:04;;;;;;;25.25;15.88;;;11.20;99.90;;;;;;4975360;28;20236;-80
2023/05/08 05:32:31;;;;;;;21.10;16.13;;;11.20;99.90;;;;;;4993173;28;20742;-77
2023/05/08 05:34:56;;;;;;;20.45;15.13;;;11.20;99.90;;;;;;4975933;28;20316;-77
2023/05/08 05:37:22;;;;;;;19.13;15.60;;;11.20;99.90;;;;;;4960284;28;20640;-78
2023/05/08 05:39:48;;;;;;;19.80;16.27;;;11.20;99.90;;;;;;4959372;28;20204;-78
2023/05/08 05:42:14;;;;;;;21.65;16.88;;;11.20;99.90;;;;;;4958664;28;20192;-78
2023/05/08 05:44:41;;;;;;;22.45;15.73;;;11.30;99.90;;;;;;4964627;28;20216;-78
2023/05/08 05:47:11;;;;;;;22.17;15.68;;;11.30;99.90;;;;;;4991780;28;20185;-78
2023/05/08 05:49:41;;;;;;;21.10;16.52;;;11.40;99.90;;;;;;4975375;28;20610;-80
2023/05/08 05:52:08;;;;;;;21.00;17.10;;;11.40;99.90;;;;;;4973966;28;20256;-79
2023/05/08 05:54:34;;;;;;;19.52;15.70;;;11.40;99.90;;;;;;4975056;28;20271;-79
2023/05/08 05:57:00;;;;;;;21.10;15.90;;;11.50;99.90;;;;;;4959841;28;20276;-79
2023/05/08 05:59:26;;;;;;;23.08;17.67;;;11.50;99.90;;;;;;4976344;28;20186;-80
2023/05/08 06:01:51;;;;;;;20.90;16.17;;;11.50;99.90;;;;;;4993264;28;20225;-80
2023/05/08 06:04:17;;;;;;;22.77;15.88;;;11.70;99.90;;;;;;4959725;28;20647;-80
2023/05/08 06:06:43;;;;;;;22.20;15.55;;;11.70;99.90;;;;;;4974966;28;20537;-79
2023/05/08 06:09:09;;;;;;;21.73;16.20;;;11.80;99.90;;;;;;4959459;28;20296;-79
2023/05/08 06:11:35;;;;;;;20.80;15.93;;;11.80;99.90;;;;;;4974316;28;20662;-79
2023/05/08 06:14:01;;;;;;;22.63;16.77;;;11.90;99.90;;;;;;4960192;28;20197;-79
2023/05/08 06:16:29;;;;;;;20.95;16.08;;;11.90;99.90;;;;;;4975234;28;20240;-80
2023/05/08 06:18:55;;;;;;;21.08;15.20;;;12.00;99.90;;;;;;4972242;28;20205;-78
2023/05/08 06:21:21;;;;;;;20.35;15.20;;;12.00;99.90;;;;;;4991380;28;20196;-80
2023/05/08 06:23:47;;;;;;;23.98;16.52;;;12.10;99.90;;;;;;4992401;28;20647;-84
2023/05/08 06:26:15;;;;;;;18.83;15.20;;;12.10;99.90;;;;;;4959820;28;20238;-79
2023/05/08 06:28:41;;;;;;;20.20;15.93;;;12.20;99.90;;;;;;4960366;28;20221;-79
2023/05/08 06:31:07;;;;;;;22.98;15.40;;;12.20;99.90;;;;;;4973897;28;20213;-82
2023/05/08 06:33:33;;;;;;;18.92;15.32;;;12.30;99.90;;;;;;4991805;28;20276;-79
2023/05/08 06:35:59;;;;;;;21.83;15.02;;;12.30;99.90;;;;;;4975446;28;20647;-82
2023/05/08 06:38:25;;;;;;;20.45;15.00;;;12.40;99.90;;;;;;4975743;28;20209;-80
2023/05/08 06:40:51;;;;;;;21.92;14.13;;;12.50;99.90;;;;;;4993615;28;20209;-89
2023/05/08 06:43:16;;;;;;;20.65;15.73;;;12.60;99.90;;;;;;5001118;28;20253;-83
2023/05/08 06:45:43;;;;;;;18.25;14.25;;;12.80;99.90;;;;;;4966896;28;20189;-83
2023/05/08 06:48:09;;;;;;;18.27;14.30;;;12.80;99.90;;;;;;4996567;28;20213;-83
2023/05/08 06:50:38;;;;;;;20.23;15.30;;;12.90;99.90;;;;;;4995992;28;20264;-84
2023/05/08 06:53:04;;;;;;;19.17;15.07;;;13.00;99.90;;;;;;4984482;28;20654;-83
2023/05/08 06:55:30;;;;;;;16.85;14.52;;;13.10;99.90;;;;;;4993942;28;20292;-84
2023/05/08 06:57:55;;;;;;;19.25;15.57;;;13.20;99.90;;;;;;4982568;28;20216;-91
2023/05/08 07:00:22;;;;;;;19.23;14.60;;;13.30;99.90;;;;;;4968092;28;20182;-92
2023/05/08 07:02:48;;;;;;;19.00;15.05;;;13.40;99.90;;;;;;4970518;28;20181;-88
2023/05/08 07:05:14;;;;;;;19.73;15.60;;;13.40;99.90;;;;;;4948664;28;20189;-84
2023/05/08 07:07:41;;;;;;;18.70;14.75;;;13.40;99.90;;;;;;4977821;28;20260;-81
2023/05/08 07:10:07;;;;;;;22.48;15.98;;;13.50;99.90;;;;;;4946231;28;20198;-80
2023/05/08 07:12:33;;;;;;;17.85;14.73;;;13.40;99.90;;;;;;4994720;28;20312;-81
2023/05/08 07:14:59;;;;;;;20.55;15.65;;;13.40;99.90;;;;;;4978571;28;20209;-79
2023/05/08 07:17:25;;;;;;;23.20;15.52;;;13.50;99.90;;;;;;4988209;28;20727;-81
2023/05/08 07:19:51;;;;;;;19.70;15.48;;;13.50;99.90;;;;;;4958479;28;20220;-84
2023/05/08 07:22:17;;;;;;;20.80;14.80;;;13.50;99.90;;;;;;4974914;28;20196;-83
2023/05/08 07:24:43;;;;;;;19.90;15.90;;;13.50;99.90;;;;;;4942782;28;20186;-82
2023/05/08 07:27:09;;;;;;;18.35;15.63;;;13.50;99.90;;;;;;4986048;28;20196;-81
2023/05/08 07:29:36;;;;;;;21.73;14.88;;;13.50;99.90;;;;;;4976317;28;20232;-84
2023/05/08 07:32:05;;;;;;;19.27;14.82;;;13.60;99.90;;;;;;4995697;28;20209;-82
2023/05/08 07:34:32;;;;;;;17.50;14.63;;;13.60;99.90;;;;;;4995854;28;20205;-82
2023/05/08 07:36:58;;;;;;;19.30;15.23;;;13.70;99.90;;;;;;4977333;28;20182;-82
2023/05/08 07:39:24;;;;;;;18.38;15.43;;;13.70;99.90;;;;;;5006504;28;20677;-82
2023/05/08 07:41:50;;;;;;;20.27;15.57;;;13.70;99.90;;;;;;4985211;28;20251;-83
2023/05/08 07:44:16;;;;;;;18.90;15.70;;;13.80;99.90;;;;;;4978186;28;20644;-83
2023/05/08 07:46:41;;;;;;;18.27;14.70;;;13.80;99.90;;;;;;4977958;28;20400;-82
2023/05/08 07:49:07;;;;;;;20.70;15.27;;;13.80;99.90;;;;;;4974938;28;20201;-81
2023/05/08 07:51:33;;;;;;;18.88;15.13;;;13.80;99.90;;;;;;4993765;28;20227;-82
2023/05/08 07:53:59;;;;;;;20.33;15.43;;;13.90;99.90;;;;;;4980437;28;20216;-82
2023/05/08 07:56:24;;;;;;;20.92;15.85;;;13.90;99.90;;;;;;5002435;28;20185;-81
2023/05/08 07:58:50;;;;;;;18.67;15.88;;;13.90;99.90;;;;;;4975836;28;20181;-82
2023/05/08 08:01:16;;;;;;;18.88;15.70;;;13.90;99.90;;;;;;4961300;28;20736;-81
2023/05/08 08:03:44;;;;;;;18.52;15.65;;;14.00;99.90;;;;;;4993911;28;20193;-83
2023/05/08 08:06:09;;;;;;;20.08;16.00;;;14.00;99.90;;;;;;4995034;28;20214;-83
2023/05/08 08:08:35;;;;;;;19.02;15.82;;;13.90;99.90;;;;;;4976677;28;20182;-82
2023/05/08 08:11:01;;;;;;;20.02;16.50;;;13.90;99.90;;;;;;4944392;28;20593;-82
2023/05/08 08:13:27;;;;;;;22.35;17.25;;;14.00;99.90;;;;;;4961566;28;20643;-82
2023/05/08 08:15:53;;;;;;;21.55;16.73;;;14.00;99.90;;;;;;4979259;28;20189;-83
2023/05/08 08:18:18;;;;;;;20.67;16.42;;;14.10;99.90;;;;;;4977933;28;20247;-83
2023/05/08 08:20:44;;;;;;;21.73;16.98;;;14.30;99.90;;;;;;4979108;28;20228;-83
2023/05/08 08:23:10;;;;;;;22.80;17.30;;;14.40;99.90;;;;;;4958002;28;20185;-83
2023/05/08 08:25:36;;;;;;;19.63;16.70;;;14.50;99.90;;;;;;4974557;28;20646;-83
2023/05/08 08:28:01;;;;;;;22.65;17.25;;;14.50;99.90;;;;;;4980696;28;20180;-83
2023/05/08 08:30:27;;;;;;;20.33;17.30;;;14.60;99.90;;;;;;4977704;28;20222;-82
2023/05/08 08:32:53;;;;;;;21.77;17.80;;;14.70;99.90;;;;;;4986949;28;20289;-82
2023/05/08 08:35:19;;;;;;;21.45;16.77;;;14.70;99.90;;;;;;4935608;28;20194;-82
2023/05/08 08:37:45;;;;;;;23.02;17.95;;;14.80;99.90;;;;;;4974759;28;20186;-82
2023/05/08 08:40:11;;;;;;;23.13;17.35;;;14.90;99.90;;;;;;4975261;28;20182;-82
2023/05/08 08:42:36;;;;;;;22.10;17.58;;;15.00;99.90;;;;;;4973035;28;20221;-83
2023/05/08 08:45:02;;;;;;;20.98;17.40;;;15.00;99.90;;;;;;4973684;28;20186;-82
2023/05/08 08:47:36;;;;;;;23.38;17.13;;;15.00;99.90;;;;;;4973664;28;20186;-83
2023/05/08 08:50:03;;;;;;;22.85;17.15;;;15.00;99.90;;;;;;4974053;28;20260;-83
2023/05/08 08:52:37;;;;;;;21.40;17.23;;;15.10;99.90;;;;;;4972610;28;20221;-83
2023/05/08 08:55:07;;;;;;;21.25;17.45;;;15.10;99.90;;;;;;4958032;28;20213;-83
2023/05/08 08:57:38;;;;;;;22.60;18.75;;;15.10;99.90;;;;;;4975063;28;20179;-84
2023/05/08 09:00:07;;;;;;;20.83;17.55;;;15.10;99.90;;;;;;4990022;28;20189;-83
2023/05/08 09:02:34;;;;;;;23.45;17.75;;;15.10;99.90;;;;;;4974769;28;20260;-81
2023/05/08 09:05:00;;;;;;;23.50;17.58;;;15.20;99.90;;;;;;4977977;28;20202;-82
2023/05/08 09:07:28;;;;;;;20.60;17.48;;;15.20;99.90;;;;;;4958763;28;20186;-82
2023/05/08 09:09:55;;;;;;;22.33;18.58;;;15.30;99.90;;;;;;4958052;28;20189;-83
2023/05/08 09:12:21;;;;;;;21.38;17.92;;;15.40;99.90;;;;;;4973140;28;20626;-83
2023/05/08 09:14:47;;;;;;;21.98;17.98;;;15.40;99.90;;;;;;4972878;28;20222;-83
2023/05/08 09:17:13;;;;;;;20.05;17.10;;;15.50;99.90;;;;;;4974467;28;20632;-83
2023/05/08 09:19:40;;;;;;;21.15;17.90;;;15.50;99.90;;;;;;4973889;28;20186;-81
2023/05/08 09:22:08;;;;;;;23.10;17.63;;;15.60;99.90;;;;;;4974890;28;20190;-83
2023/05/08 09:25:00;;;;;;;24.00;18.17;;;15.70;99.90;;;;;;4973715;28;20201;-83
2023/05/08 09:27:27;;;;;;;22.58;19.13;;;15.90;99.90;;;;;;4952280;29;20206;-82
2023/05/08 09:30:10;;;;;;;20.95;17.50;;;16.10;99.90;;;;;;4977160;28;20219;-83
2023/05/08 09:32:40;;;;;;;21.00;17.98;;;16.40;99.90;;;;;;4974864;28;20202;-83
2023/05/08 09:35:09;;;;;;;20.63;16.55;;;16.60;99.90;;;;;;4973871;28;20201;-83
2023/05/08 09:37:38;;;;;;;22.17;18.00;;;16.80;99.90;;;;;;4972567;28;20617;-83
2023/05/08 09:40:14;;;;;;;20.70;16.60;;;17.00;99.90;;;;;;4973085;28;20245;-83
2023/05/08 09:42:40;;;;;;;22.48;16.80;;;17.10;99.90;;;;;;4958366;28;20204;-83
2023/05/08 09:45:06;;;;;;;21.85;17.52;;;17.10;99.90;;;;;;4991733;28;20186;-83
2023/05/08 09:47:36;;;;;;;20.42;17.40;;;17.20;99.90;;;;;;4973370;28;20232;-82
2023/05/08 09:50:09;;;;;;;20.00;16.58;;;17.20;99.90;;;;;;4972713;28;20210;-81
2023/05/08 09:52:37;;;;;;;20.98;17.15;;;17.30;99.90;;;;;;4971607;28;20213;-82
2023/05/08 09:55:08;;;;;;;20.33;16.92;;;17.50;99.90;;;;;;4958964;28;20190;-82
2023/05/08 09:57:37;;;;;;;20.13;17.27;;;17.60;99.90;;;;;;4957837;28;20232;-83
2023/05/08 10:00:10;;;;;;;18.75;16.13;;;17.70;99.90;;;;;;4956960;28;20281;-82
2023/05/08 10:02:40;;;;;;;22.73;17.02;;;17.80;99.90;;;;;;4973849;28;20244;-83
2023/05/08 10:05:31;;;;;;;19.05;16.83;;;17.90;99.90;;;;;;4973744;28;20276;-82
2023/05/08 10:07:58;;;;;;;21.67;17.60;;;18.00;99.90;;;;;;4973080;28;20660;-81
2023/05/08 10:10:26;;;;;;;20.58;17.38;;;18.20;99.90;;;;;;4956221;28;20590;-82
2023/05/08 10:12:53;;;;;;;23.08;18.90;;;18.20;99.90;;;;;;4970548;28;20229;-84
2023/05/08 10:15:24;;;;;;;23.98;18.17;;;18.40;99.90;;;;;;4972418;28;20182;-84
2023/05/08 10:18:01;;;;;;;21.55;17.25;;;18.40;99.90;;;;;;4976173;28;20674;-82
2023/05/08 10:20:29;;;;;;;25.33;17.65;;;18.60;99.90;;;;;;4979651;28;20161;-84
2023/05/08 10:22:57;;;;;;;22.48;18.50;;;18.70;99.90;;;;;;4976216;28;20202;-83
2023/05/08 10:25:24;;;;;;;22.88;17.30;;;18.80;99.90;;;;;;4981846;28;20193;-83
2023/05/08 10:28:05;;;;;;;22.27;18.40;;;18.90;99.90;;;;;;4979118;28;20191;-83
2023/05/08 10:30:35;;;;;;;21.77;17.25;;;18.90;99.90;;;;;;4979048;28;20292;-83
2023/05/08 10:33:07;;;;;;;21.27;17.92;;;19.00;99.90;;;;;;4977042;28;20186;-83
2023/05/08 10:35:33;;;;;;;21.98;17.25;;;19.20;99.90;;;;;;4975084;28;20194;-83
2023/05/08 10:38:00;;;;;;;21.05;17.80;;;19.30;99.90;;;;;;4959724;28;20182;-83
2023/05/08 10:40:25;;;;;;;21.67;17.60;;;19.30;99.90;;;;;;4959885;28;20179;-82
2023/05/08 10:42:51;;;;;;;22.42;18.00;;;19.40;99.90;;;;;;4943827;28;20248;-83
2023/05/08 10:45:17;;;;;;;23.38;18.23;;;19.60;99.90;;;;;;4975510;28;20196;-82
2023/05/08 10:48:32;;;;;;;20.85;17.52;;;19.70;99.90;;;;;;4972436;28;20221;-82
2023/05/08 10:51:43;;;;;;;22.75;18.85;;;19.70;99.90;;;;;;4968647;28;20687;-82
2023/05/08 10:54:20;;;;;;;24.85;19.50;;;19.70;99.90;;;;;;4976189;28;20204;-81
2023/05/08 10:56:47;;;;;;;21.55;18.73;;;19.70;99.90;;;;;;4974887;28;20185;-81
2023/05/08 10:59:21;;;;;;;28.98;20.35;;;19.70;99.90;;;;;;4975281;28;20269;-83
2023/05/08 11:01:48;;;;;;;24.67;21.17;;;19.80;99.90;;;;;;4957721;29;20330;-82
2023/05/08 11:04:23;;;;;;;22.88;19.75;;;19.80;99.90;;;;;;4972430;28;20197;-83
2023/05/08 11:06:52;;;;;;;22.58;20.15;;;19.80;99.90;;;;;;4972765;28;20264;-82
2023/05/08 11:09:20;;;;;;;22.92;18.95;;;20.00;99.90;;;;;;4960008;28;20209;-81
2023/05/08 11:11:59;;;;;;;24.02;20.38;;;20.10;99.90;;;;;;4974447;28;20213;-82
2023/05/08 11:14:26;;;;;;;23.15;19.60;;;20.30;99.90;;;;;;4976013;28;20182;-83
2023/05/08 11:16:52;;;;;;;23.35;20.27;;;20.30;99.90;;;;;;4976706;28;20317;-82
2023/05/08 11:19:19;;;;;;;25.25;20.52;;;20.40;99.90;;;;;;4992337;28;20298;-82
2023/05/08 11:22:11;;;;;;;27.55;20.90;;;20.50;99.90;;;;;;4975008;28;20190;-82
2023/05/08 11:24:47;;;;;;;25.55;20.50;;;20.60;99.90;;;;;;4975897;28;20201;-82
2023/05/08 11:27:16;;;;;;;25.40;20.73;;;20.60;99.90;;;;;;4992949;28;20320;-82
2023/05/08 11:29:43;;;;;;;24.30;20.35;;;20.70;99.90;;;;;;4991539;28;20218;-83
2023/05/08 11:32:09;;;;;;;24.02;20.70;;;20.70;99.90;;;;;;4978003;28;20229;-81
2023/05/08 11:34:41;;;;;;;28.73;20.80;;;20.80;99.90;;;;;;4975960;28;20190;-81
2023/05/08 11:37:10;;;;;;;25.13;21.02;;;20.90;99.90;;;;;;4987155;28;20629;-81
2023/05/08 11:39:36;;;;;;;23.67;20.52;;;21.00;99.90;;;;;;4978032;28;20212;-81
2023/05/08 11:42:24;;;;;;;27.10;22.02;;;21.10;99.90;;;;;;4975860;28;20598;-80
2023/05/08 11:45:09;;;;;;;23.13;20.58;;;21.20;99.90;;;;;;4974880;28;20197;-82
2023/05/08 11:47:40;;;;;;;23.20;19.55;;;21.20;99.90;;;;;;4976690;28;20186;-81
2023/05/08 11:50:08;;;;;;;23.52;20.10;;;21.30;99.90;;;;;;4977330;28;20190;-81
2023/05/08 11:52:35;;;;;;;26.00;21.80;;;21.40;99.90;;;;;;4975914;28;20225;-80
2023/05/08 11:55:09;;;;;;;23.77;21.10;;;21.40;99.90;;;;;;4974551;28;20273;-81
2023/05/08 11:57:35;;;;;;;24.85;20.92;;;21.50;99.90;;;;;;4977088;28;20206;-81
2023/05/08 12:00:09;;;;;;;24.58;21.65;;;21.60;99.90;;;;;;4976800;28;20277;-81
2023/05/08 12:02:44;;;;;;;25.58;20.98;;;21.50;99.90;;;;;;4976449;28;20193;-81
2023/05/08 12:05:10;;;;;;;26.60;21.00;;;21.50;99.90;;;;;;4959406;28;20558;-80
2023/05/08 12:07:43;;;;;;;27.75;22.90;;;21.60;99.90;;;;;;4959462;28;20224;-81
2023/05/08 12:10:09;;;;;;;29.30;22.70;;;21.60;99.90;;;;;;4959158;28;20186;-81
2023/05/08 12:12:40;;;;;;;25.98;22.70;;;21.60;99.90;;;;;;4975594;28;20221;-82
2023/05/08 12:15:11;;;;;;;27.15;22.70;;;21.60;99.90;;;;;;4975536;28;20205;-83
2023/05/08 12:17:37;;;;;;;24.00;20.42;;;21.60;99.90;;;;;;4972146;28;20181;-80
2023/05/08 12:20:13;;;;;;;32.55;23.05;;;21.60;99.90;;;;;;4971021;28;20182;-84
2023/05/08 12:22:48;;;;;;;25.23;20.65;;;21.70;99.90;;;;;;4986849;28;20189;-81
2023/05/08 12:25:16;;;;;;;24.58;21.13;;;21.70;99.90;;;;;;4969842;28;20211;-82
2023/05/08 12:27:42;;;;;;;26.42;19.30;;;21.80;99.90;;;;;;4984090;28;20632;-83
2023/05/08 12:30:11;;;;;;;23.45;20.45;;;21.90;99.90;;;;;;4967061;28;20676;-83
2023/05/08 12:32:38;;;;;;;27.20;21.08;;;22.10;99.90;;;;;;4984544;28;20232;-81
2023/05/08 12:35:08;;;;;;;25.90;21.08;;;22.20;99.90;;;;;;4973836;28;20196;-84
2023/05/08 12:37:35;;;;;;;23.20;20.52;;;22.20;99.90;;;;;;4971187;28;20198;-82
2023/05/08 12:40:02;;;;;;;24.15;19.13;;;22.30;99.90;;;;;;4956212;28;20189;-80